Time;durP1;ratioP1;P1;durP2;ratioP2;P2;SDS_P1;SDS_P2;PMS_P1;PMS_P2;Temp;Humidity;BMP_temperature;BMP_pressure;BME280_temperature;BME280_humidity;BME280_pressure;Samples;Min_cycle;Max_cycle;Signal;HPM_P1;HPM_P2
2023/09/18 00:01:39;;;;;;;9.68;6.80;;;;;;;;;;5048107;28;20358;-54
2023/09/18 00:04:06;;;;;;;11.75;6.78;;;;;;;;;;5048490;28;20028;-58
2023/09/18 00:06:33;;;;;;;10.75;7.00;;;;;;;;;;5051462;28;20033;-55
2023/09/18 00:08:58;;;;;;;10.73;6.50;;;;;;;;;;5053471;28;20103;-56
2023/09/18 00:11:24;;;;;;;10.20;6.80;;;;;;;;;;5050507;28;20029;-55
2023/09/18 00:13:49;;;;;;;8.98;6.53;;;;;;;;;;5045701;28;20040;-55
2023/09/18 00:16:15;;;;;;;9.13;6.78;;;;;;;;;;5051939;28;20056;-54
2023/09/18 00:18:41;;;;;;;11.40;7.18;;;;;;;;;;5050512;28;20135;-56
2023/09/18 00:21:06;;;;;;;10.20;6.93;;;;;;;;;;5051920;28;20039;-59
2023/09/18 00:23:32;;;;;;;12.18;7.15;;;;;;;;;;5053618;28;20116;-55
2023/09/18 00:25:58;;;;;;;10.15;6.75;;;;;;;;;;5044493;28;20037;-53
2023/09/18 00:28:23;;;;;;;10.75;6.60;;;;;;;;;;5048178;28;20035;-53
2023/09/18 00:30:50;;;;;;;10.45;6.70;;;;;;;;;;5053396;28;20407;-54
2023/09/18 00:33:16;;;;;;;10.27;6.93;;;;;;;;;;5049170;28;20033;-57
2023/09/18 00:35:46;;;;;;;9.32;6.63;;;;;;;;;;5047055;28;20044;-56
2023/09/18 00:38:11;;;;;;;13.27;6.73;;;;;;;;;;5050550;28;20029;-55
2023/09/18 00:40:36;;;;;;;13.75;7.35;;;;;;;;;;5050906;28;20037;-55
2023/09/18 00:43:05;;;;;;;9.68;6.32;;;;;;;;;;5040148;28;20079;-57
2023/09/18 00:45:30;;;;;;;10.55;6.82;;;;;;;;;;5036421;28;20702;-56
2023/09/18 00:47:56;;;;;;;8.13;6.43;;;;;;;;;;5050592;28;20481;-58
2023/09/18 00:50:21;;;;;;;10.70;6.60;;;;;;;;;;5051669;28;20033;-57
2023/09/18 00:52:48;;;;;;;10.93;6.65;;;;;;;;;;5049167;28;20108;-56
2023/09/18 00:55:14;;;;;;;11.18;6.75;;;;;;;;;;5033128;28;20118;-57
2023/09/18 00:57:41;;;;;;;10.05;6.40;;;;;;;;;;5033889;28;20037;-52
2023/09/18 01:00:07;;;;;;;14.43;6.80;;;;;;;;;;5036554;28;20032;-57
2023/09/18 01:02:33;;;;;;;9.02;6.28;;;;;;;;;;5053655;28;20040;-56
2023/09/18 01:04:59;;;;;;;9.63;6.43;;;;;;;;;;5052182;28;20033;-57
2023/09/18 01:07:28;;;;;;;10.80;6.47;;;;;;;;;;5052419;28;20029;-53
2023/09/18 01:09:54;;;;;;;9.93;6.20;;;;;;;;;;5051981;28;20033;-57
2023/09/18 01:12:37;;;;;;;11.27;6.72;;;;;;;;;;5052442;28;20500;-55
2023/09/18 01:15:14;;;;;;;11.52;6.53;;;;;;;;;;5033424;28;20045;-56
2023/09/18 01:17:41;;;;;;;11.73;6.30;;;;;;;;;;5033381;28;20093;-55
2023/09/18 01:20:10;;;;;;;12.55;6.32;;;;;;;;;;5038577;28;20033;-56
2023/09/18 01:22:35;;;;;;;10.38;6.32;;;;;;;;;;5053383;28;20085;-56
2023/09/18 01:25:00;;;;;;;10.90;6.10;;;;;;;;;;5053573;28;20398;-58
2023/09/18 01:27:26;;;;;;;9.95;6.53;;;;;;;;;;5051430;28;20665;-55
2023/09/18 01:29:53;;;;;;;9.55;6.10;;;;;;;;;;5052265;28;20037;-57
2023/09/18 01:32:18;;;;;;;8.52;6.40;;;;;;;;;;5052645;28;20025;-54
2023/09/18 01:34:52;;;;;;;8.57;6.03;;;;;;;;;;5051138;28;20338;-58
2023/09/18 01:37:24;;;;;;;9.73;6.15;;;;;;;;;;5049558;28;20029;-56
2023/09/18 01:39:51;;;;;;;12.00;6.35;;;;;;;;;;5051820;28;20463;-53
2023/09/18 01:42:16;;;;;;;11.88;6.57;;;;;;;;;;5053135;28;20085;-57
2023/09/18 01:44:43;;;;;;;11.00;6.40;;;;;;;;;;5051776;28;20033;-55
2023/09/18 01:47:12;;;;;;;9.38;6.22;;;;;;;;;;5052262;28;20029;-56
2023/09/18 01:49:39;;;;;;;9.05;6.03;;;;;;;;;;5053143;28;20040;-57
2023/09/18 01:52:05;;;;;;;9.52;6.00;;;;;;;;;;5049945;28;20029;-57
2023/09/18 01:54:32;;;;;;;8.63;5.80;;;;;;;;;;5052514;28;20029;-56
2023/09/18 01:56:58;;;;;;;12.45;5.72;;;;;;;;;;5052845;28;20024;-56
2023/09/18 01:59:23;;;;;;;9.10;5.95;;;;;;;;;;5051442;28;20040;-55
2023/09/18 02:01:50;;;;;;;8.98;6.00;;;;;;;;;;5033219;28;20029;-55
2023/09/18 02:04:16;;;;;;;14.23;6.10;;;;;;;;;;5032136;28;20080;-54
2023/09/18 02:06:42;;;;;;;11.02;6.18;;;;;;;;;;5046592;28;20110;-57
2023/09/18 02:09:08;;;;;;;10.65;6.10;;;;;;;;;;5052231;28;20453;-55
2023/09/18 02:11:42;;;;;;;10.23;5.90;;;;;;;;;;5052363;28;20028;-57
2023/09/18 02:14:09;;;;;;;9.25;6.20;;;;;;;;;;5049090;28;20107;-56
2023/09/18 02:16:36;;;;;;;12.05;6.10;;;;;;;;;;5052289;28;20496;-57
2023/09/18 02:19:04;;;;;;;10.70;6.30;;;;;;;;;;5052509;28;20025;-55
2023/09/18 02:21:31;;;;;;;9.85;6.43;;;;;;;;;;5050207;28;20101;-56
2023/09/18 02:23:56;;;;;;;9.25;6.43;;;;;;;;;;5051995;28;20060;-57
2023/09/18 02:26:23;;;;;;;11.15;6.45;;;;;;;;;;5051308;28;20059;-57
2023/09/18 02:28:49;;;;;;;10.32;5.88;;;;;;;;;;5035043;28;20090;-57
2023/09/18 02:31:15;;;;;;;13.63;6.70;;;;;;;;;;5031567;28;20034;-57
2023/09/18 02:33:40;;;;;;;11.30;6.22;;;;;;;;;;5032659;28;20029;-56
2023/09/18 02:36:06;;;;;;;11.55;6.20;;;;;;;;;;5043988;28;20033;-57
2023/09/18 02:38:33;;;;;;;7.53;5.90;;;;;;;;;;5051428;28;20062;-57
2023/09/18 02:41:00;;;;;;;9.15;5.78;;;;;;;;;;5052036;28;20061;-56
2023/09/18 02:43:25;;;;;;;12.38;5.75;;;;;;;;;;5050187;28;20033;-57
2023/09/18 02:45:51;;;;;;;9.68;6.00;;;;;;;;;;5052172;28;20124;-56
2023/09/18 02:48:17;;;;;;;12.10;6.25;;;;;;;;;;5051599;28;20032;-56
2023/09/18 02:50:43;;;;;;;11.63;6.18;;;;;;;;;;5049580;28;20039;-57
2023/09/18 02:53:25;;;;;;;11.00;5.97;;;;;;;;;;5050725;28;20041;-56
2023/09/18 02:55:52;;;;;;;9.73;6.15;;;;;;;;;;5051993;28;20091;-57
2023/09/18 02:58:19;;;;;;;9.35;5.60;;;;;;;;;;5051072;28;20044;-56
2023/09/18 03:00:45;;;;;;;10.85;5.80;;;;;;;;;;5041130;28;20117;-57
2023/09/18 03:03:12;;;;;;;11.75;6.30;;;;;;;;;;5041874;28;20114;-56
2023/09/18 03:05:38;;;;;;;13.57;5.70;;;;;;;;;;5050855;28;20103;-54
2023/09/18 03:08:04;;;;;;;8.57;5.75;;;;;;;;;;5050384;28;20112;-57
2023/09/18 03:10:37;;;;;;;11.88;5.82;;;;;;;;;;5050114;28;20158;-57
2023/09/18 03:13:03;;;;;;;9.15;5.72;;;;;;;;;;5050099;28;20064;-56
2023/09/18 03:15:30;;;;;;;10.85;5.80;;;;;;;;;;5050860;28;20067;-55
2023/09/18 03:17:56;;;;;;;10.70;5.90;;;;;;;;;;5051688;28;20047;-57
2023/09/18 03:20:26;;;;;;;11.43;5.97;;;;;;;;;;5050340;28;20033;-57
2023/09/18 03:22:54;;;;;;;9.70;6.10;;;;;;;;;;5051511;28;20060;-57
2023/09/18 03:25:19;;;;;;;11.27;6.07;;;;;;;;;;5049675;28;20452;-57
2023/09/18 03:27:47;;;;;;;9.15;5.80;;;;;;;;;;5051155;28;20052;-56
2023/09/18 03:30:15;;;;;;;11.15;5.47;;;;;;;;;;5050242;28;20032;-57
2023/09/18 03:32:43;;;;;;;9.23;5.97;;;;;;;;;;5051330;28;20116;-53
2023/09/18 03:35:17;;;;;;;8.90;5.30;;;;;;;;;;5050190;28;20098;-53
2023/09/18 03:37:43;;;;;;;8.25;5.20;;;;;;;;;;5055413;28;20469;-58
2023/09/18 03:40:09;;;;;;;8.30;4.80;;;;;;;;;;5053199;28;20059;-55
2023/09/18 03:42:34;;;;;;;8.60;5.28;;;;;;;;;;5054673;28;20442;-57
2023/09/18 03:45:00;;;;;;;9.10;5.20;;;;;;;;;;5052858;28;20087;-55
2023/09/18 03:47:25;;;;;;;10.63;5.10;;;;;;;;;;5054655;28;20450;-55
2023/09/18 03:49:51;;;;;;;8.25;5.00;;;;;;;;;;5053088;28;20025;-57
2023/09/18 03:52:16;;;;;;;8.75;4.97;;;;;;;;;;5051662;28;20033;-57
2023/09/18 03:54:42;;;;;;;7.72;4.70;;;;;;;;;;5053327;28;20037;-57
2023/09/18 03:57:07;;;;;;;7.18;4.97;;;;;;;;;;5052356;28;20038;-57
2023/09/18 03:59:32;;;;;;;9.00;5.20;;;;;;;;;;5034389;28;20303;-55
2023/09/18 04:01:58;;;;;;;19.80;5.10;;;;;;;;;;5049508;28;20120;-56
2023/09/18 04:04:23;;;;;;;10.10;4.63;;;;;;;;;;5054010;28;20037;-54
2023/09/18 04:06:49;;;;;;;8.73;4.60;;;;;;;;;;5055103;28;20025;-54
2023/09/18 04:09:15;;;;;;;9.93;4.55;;;;;;;;;;5054728;28;20025;-55
2023/09/18 04:11:40;;;;;;;8.90;4.78;;;;;;;;;;5054630;28;20029;-54
2023/09/18 04:14:05;;;;;;;8.18;4.65;;;;;;;;;;5053347;28;20033;-54
2023/09/18 04:16:35;;;;;;;8.95;4.90;;;;;;;;;;5053860;28;20466;-56
2023/09/18 04:19:01;;;;;;;11.52;4.70;;;;;;;;;;5052137;28;20043;-57
2023/09/18 04:21:29;;;;;;;9.13;4.28;;;;;;;;;;5053939;28;20047;-54
2023/09/18 04:23:57;;;;;;;11.20;4.45;;;;;;;;;;5054824;28;20072;-57
2023/09/18 04:26:23;;;;;;;8.77;4.57;;;;;;;;;;5052734;28;20032;-57
2023/09/18 04:28:48;;;;;;;10.60;4.40;;;;;;;;;;5054810;28;20075;-56
2023/09/18 04:31:14;;;;;;;7.85;4.20;;;;;;;;;;5049495;28;20021;-55
2023/09/18 04:33:39;;;;;;;9.27;4.30;;;;;;;;;;5041649;28;20122;-56
2023/09/18 04:36:05;;;;;;;8.95;4.60;;;;;;;;;;5034725;28;20060;-54
2023/09/18 04:38:30;;;;;;;10.75;4.32;;;;;;;;;;5033022;28;20037;-56
2023/09/18 04:41:00;;;;;;;9.40;4.53;;;;;;;;;;5042636;28;20036;-52
2023/09/18 04:43:26;;;;;;;10.00;4.28;;;;;;;;;;5053437;28;20029;-54
2023/09/18 04:45:51;;;;;;;9.82;4.20;;;;;;;;;;5040798;28;20035;-56
2023/09/18 04:48:17;;;;;;;8.73;3.97;;;;;;;;;;5032727;28;20029;-55
2023/09/18 04:50:43;;;;;;;8.73;4.10;;;;;;;;;;5033808;28;20072;-55
2023/09/18 04:53:09;;;;;;;11.85;4.05;;;;;;;;;;5034497;28;20033;-56
2023/09/18 04:55:34;;;;;;;9.38;3.53;;;;;;;;;;5033891;28;20033;-56
2023/09/18 04:58:00;;;;;;;10.15;3.70;;;;;;;;;;5052673;28;20078;-56
2023/09/18 05:00:26;;;;;;;8.75;3.70;;;;;;;;;;5052595;28;20029;-55
2023/09/18 05:02:51;;;;;;;10.50;3.53;;;;;;;;;;5053871;28;20473;-54
2023/09/18 05:05:17;;;;;;;8.10;3.50;;;;;;;;;;5053853;28;20085;-56
2023/09/18 05:07:43;;;;;;;8.88;3.60;;;;;;;;;;5053611;28;20036;-56
2023/09/18 05:10:09;;;;;;;8.05;3.33;;;;;;;;;;5053937;28;20032;-54
2023/09/18 05:12:35;;;;;;;10.55;4.30;;;;;;;;;;5045177;28;20371;-60
2023/09/18 05:15:00;;;;;;;9.60;3.65;;;;;;;;;;5047140;28;20044;-60
2023/09/18 05:17:47;;;;;;;10.32;3.80;;;;;;;;;;5051269;28;20044;-60
2023/09/18 05:20:16;;;;;;;9.60;4.10;;;;;;;;;;5052494;28;20388;-58
2023/09/18 05:22:42;;;;;;;10.18;4.45;;;;;;;;;;5051859;28;20043;-56
2023/09/18 05:25:09;;;;;;;10.07;4.18;;;;;;;;;;5053538;28;20044;-56
2023/09/18 05:27:43;;;;;;;11.55;4.00;;;;;;;;;;5049865;28;20067;-57
2023/09/18 05:30:16;;;;;;;11.00;4.00;;;;;;;;;;5053459;28;20025;-56
2023/09/18 05:32:43;;;;;;;6.32;3.60;;;;;;;;;;5035058;28;20045;-55
2023/09/18 05:35:10;;;;;;;10.43;4.05;;;;;;;;;;5051258;28;20116;-58
2023/09/18 05:37:40;;;;;;;9.68;3.80;;;;;;;;;;5050501;28;20033;-59
2023/09/18 05:40:09;;;;;;;9.27;3.65;;;;;;;;;;5051869;28;20155;-58
2023/09/18 05:42:36;;;;;;;10.10;4.00;;;;;;;;;;5051649;28;20061;-59
2023/09/18 05:45:04;;;;;;;10.65;4.30;;;;;;;;;;5053241;28;20044;-57
2023/09/18 05:47:30;;;;;;;10.00;3.80;;;;;;;;;;5052303;28;20116;-59
2023/09/18 05:49:55;;;;;;;11.10;3.92;;;;;;;;;;5052942;28;20052;-58
2023/09/18 05:52:23;;;;;;;8.40;3.90;;;;;;;;;;5051613;28;20393;-58
2023/09/18 05:54:49;;;;;;;13.45;4.50;;;;;;;;;;5052494;28;20039;-58
2023/09/18 05:57:14;;;;;;;10.43;4.00;;;;;;;;;;5051151;28;20112;-60
2023/09/18 05:59:43;;;;;;;11.15;3.95;;;;;;;;;;5051830;28;20041;-60
2023/09/18 06:02:09;;;;;;;11.75;4.13;;;;;;;;;;5052846;28;20032;-59
2023/09/18 06:04:36;;;;;;;12.13;4.07;;;;;;;;;;5041608;28;20382;-59
2023/09/18 06:07:03;;;;;;;9.75;3.80;;;;;;;;;;5049211;28;20029;-58
2023/09/18 06:09:28;;;;;;;12.27;4.03;;;;;;;;;;5051974;28;20037;-58
2023/09/18 06:11:54;;;;;;;9.70;4.00;;;;;;;;;;5051839;28;20507;-59
2023/09/18 06:14:19;;;;;;;10.35;3.70;;;;;;;;;;5052572;28;20029;-57
2023/09/18 06:16:44;;;;;;;13.75;4.03;;;;;;;;;;5051744;28;20091;-58
2023/09/18 06:19:10;;;;;;;8.65;3.70;;;;;;;;;;5052573;28;20064;-58
2023/09/18 06:21:35;;;;;;;7.30;3.65;;;;;;;;;;5049317;28;20394;-58
2023/09/18 06:24:01;;;;;;;11.15;3.80;;;;;;;;;;5067210;28;20115;-58
2023/09/18 06:26:27;;;;;;;8.68;3.78;;;;;;;;;;5051524;28;20121;-58
2023/09/18 06:28:55;;;;;;;7.97;3.53;;;;;;;;;;5051119;28;20029;-58
2023/09/18 06:31:21;;;;;;;9.43;3.40;;;;;;;;;;5051884;28;20029;-58
2023/09/18 06:33:46;;;;;;;12.02;3.70;;;;;;;;;;5051833;28;20089;-59
2023/09/18 06:36:13;;;;;;;11.95;3.65;;;;;;;;;;5051698;28;20025;-57
2023/09/18 06:38:38;;;;;;;8.93;3.88;;;;;;;;;;5040439;28;20042;-57
2023/09/18 06:41:04;;;;;;;10.02;3.58;;;;;;;;;;5032290;28;20025;-60
2023/09/18 06:43:29;;;;;;;8.00;3.40;;;;;;;;;;5040503;28;20100;-59
2023/09/18 06:45:57;;;;;;;10.88;3.40;;;;;;;;;;5045503;28;20056;-58
2023/09/18 06:48:23;;;;;;;10.48;3.83;;;;;;;;;;5050152;28;20025;-57
2023/09/18 06:50:48;;;;;;;7.68;3.20;;;;;;;;;;5049771;28;20111;-60
2023/09/18 06:53:14;;;;;;;9.73;3.22;;;;;;;;;;5043149;28;20108;-60
2023/09/18 06:55:39;;;;;;;11.90;3.75;;;;;;;;;;5049935;28;20033;-60
2023/09/18 06:58:05;;;;;;;9.25;3.30;;;;;;;;;;5051971;28;20107;-59
2023/09/18 07:00:30;;;;;;;8.07;3.17;;;;;;;;;;5050915;28;20397;-61
2023/09/18 07:02:56;;;;;;;11.25;3.25;;;;;;;;;;5051685;28;20513;-58
2023/09/18 07:05:21;;;;;;;12.95;3.20;;;;;;;;;;5051562;28;20029;-60
2023/09/18 07:07:47;;;;;;;7.70;3.22;;;;;;;;;;5048693;28;20033;-60
2023/09/18 07:10:12;;;;;;;8.57;3.00;;;;;;;;;;5051410;28;20029;-60
2023/09/18 07:12:37;;;;;;;8.23;2.92;;;;;;;;;;5049587;28;20401;-60
2023/09/18 07:15:03;;;;;;;7.88;2.97;;;;;;;;;;5050058;28;20449;-57
2023/09/18 07:17:29;;;;;;;9.93;2.85;;;;;;;;;;5050803;28;20496;-60
2023/09/18 07:19:54;;;;;;;6.55;2.90;;;;;;;;;;5051697;28;20041;-59
2023/09/18 07:22:20;;;;;;;8.23;2.80;;;;;;;;;;5051643;28;20036;-58
2023/09/18 07:24:45;;;;;;;7.65;2.92;;;;;;;;;;5050454;28;20029;-58
2023/09/18 07:27:11;;;;;;;6.65;2.45;;;;;;;;;;5046119;28;20043;-57
2023/09/18 07:29:36;;;;;;;7.53;2.95;;;;;;;;;;5047449;28;20112;-55
2023/09/18 07:32:02;;;;;;;7.60;2.35;;;;;;;;;;5051568;28;20025;-59
2023/09/18 07:34:28;;;;;;;8.00;2.70;;;;;;;;;;5048387;28;20098;-60
2023/09/18 07:36:55;;;;;;;8.70;2.40;;;;;;;;;;5049526;28;20035;-60
2023/09/18 07:39:20;;;;;;;8.63;2.45;;;;;;;;;;5044659;28;20041;-57
2023/09/18 07:41:48;;;;;;;7.30;2.40;;;;;;;;;;5050058;28;20031;-57
2023/09/18 07:44:20;;;;;;;6.72;2.50;;;;;;;;;;5051064;28;20037;-59
2023/09/18 07:46:46;;;;;;;9.75;2.60;;;;;;;;;;5049173;28;20111;-58
2023/09/18 07:49:12;;;;;;;5.32;2.05;;;;;;;;;;5050832;28;20025;-58
2023/09/18 07:51:37;;;;;;;8.45;2.30;;;;;;;;;;5050058;28;20033;-59
2023/09/18 07:54:03;;;;;;;6.75;2.47;;;;;;;;;;5033292;28;20033;-59
2023/09/18 07:56:31;;;;;;;6.82;2.13;;;;;;;;;;5049222;28;20493;-58
2023/09/18 07:58:56;;;;;;;7.55;2.40;;;;;;;;;;5051101;28;20036;-58
2023/09/18 08:01:22;;;;;;;7.95;2.35;;;;;;;;;;5045453;28;20029;-55
2023/09/18 08:03:48;;;;;;;6.47;2.25;;;;;;;;;;5043208;28;20849;-58
2023/09/18 08:06:18;;;;;;;4.97;2.00;;;;;;;;;;5051288;28;20428;-58
2023/09/18 08:08:43;;;;;;;5.87;2.03;;;;;;;;;;5043639;28;20124;-56
2023/09/18 08:11:09;;;;;;;6.75;2.15;;;;;;;;;;5043547;28;20120;-57
2023/09/18 08:13:35;;;;;;;7.75;2.15;;;;;;;;;;5049836;28;20531;-55
2023/09/18 08:16:00;;;;;;;6.97;2.30;;;;;;;;;;5050980;28;20028;-58
2023/09/18 08:18:26;;;;;;;7.28;2.10;;;;;;;;;;5050754;28;20029;-58
2023/09/18 08:20:53;;;;;;;4.65;1.90;;;;;;;;;;5043754;28;20060;-55
2023/09/18 08:23:18;;;;;;;5.45;2.00;;;;;;;;;;5046476;28;20032;-58
2023/09/18 08:25:44;;;;;;;4.22;2.08;;;;;;;;;;5034676;28;20031;-57
2023/09/18 08:28:09;;;;;;;5.75;2.10;;;;;;;;;;5036131;28;20030;-58
2023/09/18 08:30:36;;;;;;;4.80;2.13;;;;;;;;;;5052997;28;20104;-59
2023/09/18 08:33:02;;;;;;;6.38;2.08;;;;;;;;;;5052818;28;20033;-57
2023/09/18 08:35:29;;;;;;;7.88;2.20;;;;;;;;;;5036492;28;20027;-60
2023/09/18 08:37:56;;;;;;;4.82;1.80;;;;;;;;;;5045222;28;20157;-57
2023/09/18 08:40:22;;;;;;;8.05;2.30;;;;;;;;;;5052916;28;20045;-57
2023/09/18 08:42:52;;;;;;;4.93;1.90;;;;;;;;;;5053805;28;20619;-56
2023/09/18 08:45:53;;;;;;;6.70;2.03;;;;;;;;;;5053389;28;20044;-56
2023/09/18 08:48:19;;;;;;;5.55;1.90;;;;;;;;;;5054414;28;20035;-57
2023/09/18 08:50:47;;;;;;;5.68;2.03;;;;;;;;;;5053617;28;20028;-57
2023/09/18 08:53:12;;;;;;;5.68;1.90;;;;;;;;;;5047617;28;20021;-60
2023/09/18 08:55:38;;;;;;;5.75;1.98;;;;;;;;;;5051779;28;20031;-58
2023/09/18 08:58:03;;;;;;;7.57;1.90;;;;;;;;;;5052643;28;20055;-57
2023/09/18 09:00:28;;;;;;;4.82;1.73;;;;;;;;;;5053026;28;20037;-59
2023/09/18 09:02:54;;;;;;;6.28;1.92;;;;;;;;;;5053871;28;20423;-59
2023/09/18 09:05:23;;;;;;;2.70;1.60;;;;;;;;;;5053996;28;20061;-57
2023/09/18 09:07:50;;;;;;;5.65;2.00;;;;;;;;;;5053346;28;20527;-58
2023/09/18 09:10:16;;;;;;;7.65;2.10;;;;;;;;;;5053738;28;20397;-59
2023/09/18 09:12:58;;;;;;;3.55;1.63;;;;;;;;;;5051757;28;20033;-58
2023/09/18 09:15:46;;;;;;;4.53;1.73;;;;;;;;;;5046227;28;20072;-59
2023/09/18 09:18:13;;;;;;;3.40;1.67;;;;;;;;;;5044987;28;20040;-59
2023/09/18 09:20:39;;;;;;;2.95;1.52;;;;;;;;;;5050107;28;20040;-59
2023/09/18 09:23:07;;;;;;;4.50;1.70;;;;;;;;;;5051544;28;20082;-59
2023/09/18 09:25:34;;;;;;;3.58;1.40;;;;;;;;;;5052429;28;20033;-59
2023/09/18 09:28:04;;;;;;;5.25;2.20;;;;;;;;;;5052133;28;20064;-58
2023/09/18 09:30:30;;;;;;;;;;;;;;;;;;5053219;28;20032;-59
2023/09/18 09:32:58;;;;;;;4.20;1.70;;;;;;;;;;5050034;28;19917;-59
2023/09/18 09:35:30;;;;;;;5.47;1.60;;;;;;;;;;5046714;28;20029;-59
2023/09/18 09:38:12;;;;;;;4.03;1.38;;;;;;;;;;5051693;28;20029;-58
2023/09/18 09:40:43;;;;;;;3.13;1.50;;;;;;;;;;5052242;28;20169;-57
2023/09/18 09:43:11;;;;;;;3.17;1.55;;;;;;;;;;5051920;28;20033;-58
2023/09/18 09:45:36;;;;;;;2.65;1.48;;;;;;;;;;5035843;28;20103;-58
2023/09/18 09:48:08;;;;;;;4.88;2.00;;;;;;;;;;5033508;28;20025;-58
2023/09/18 09:50:46;;;;;;;3.05;1.40;;;;;;;;;;5048744;28;20420;-58
2023/09/18 09:53:12;;;;;;;3.00;1.40;;;;;;;;;;5047893;28;20500;-60
2023/09/18 09:55:38;;;;;;;4.43;1.73;;;;;;;;;;5050095;28;20029;-57
2023/09/18 09:58:06;;;;;;;3.70;1.80;;;;;;;;;;5048241;28;20386;-58
2023/09/18 10:00:49;;;;;;;5.07;1.60;;;;;;;;;;5048722;28;20061;-58
2023/09/18 10:03:17;;;;;;;4.78;1.38;;;;;;;;;;5037181;28;20025;-58
2023/09/18 10:05:45;;;;;;;4.28;1.60;;;;;;;;;;5050766;28;20158;-57
2023/09/18 10:08:21;;;;;;;2.55;1.42;;;;;;;;;;5052776;28;20124;-60
2023/09/18 10:10:48;;;;;;;2.15;1.40;;;;;;;;;;5051871;28;20072;-58
2023/09/18 10:13:36;;;;;;;4.60;1.42;;;;;;;;;;5036330;28;20116;-57
2023/09/18 10:16:06;;;;;;;3.45;1.50;;;;;;;;;;5050573;28;20067;-58
2023/09/18 10:18:50;;;;;;;2.92;1.42;;;;;;;;;;5049947;28;20120;-58
2023/09/18 10:21:31;;;;;;;5.75;1.70;;;;;;;;;;5052706;28;20029;-59
2023/09/18 10:24:22;;;;;;;7.43;1.65;;;;;;;;;;5051601;28;20032;-59
2023/09/18 10:26:59;;;;;;;3.70;1.60;;;;;;;;;;5051789;28;20107;-59
2023/09/18 10:29:25;;;;;;;3.95;1.60;;;;;;;;;;5052297;28;20095;-59
2023/09/18 10:31:54;;;;;;;3.50;1.50;;;;;;;;;;5045425;28;20048;-59
2023/09/18 10:34:22;;;;;;;4.07;1.60;;;;;;;;;;5046588;28;20057;-58
2023/09/18 10:36:48;;;;;;;5.30;1.67;;;;;;;;;;5039041;28;20029;-57
2023/09/18 10:39:19;;;;;;;4.93;1.90;;;;;;;;;;5032859;28;20390;-59
2023/09/18 10:41:47;;;;;;;7.25;1.63;;;;;;;;;;5050552;28;20028;-57
2023/09/18 10:44:14;;;;;;;2.75;1.58;;;;;;;;;;5051966;28;20060;-59
2023/09/18 10:46:39;;;;;;;3.53;1.73;;;;;;;;;;5050460;28;20111;-57
2023/09/18 10:49:05;;;;;;;3.28;1.52;;;;;;;;;;5051140;28;20528;-58
2023/09/18 10:51:32;;;;;;;2.78;1.58;;;;;;;;;;5052320;28;20036;-59
2023/09/18 10:53:58;;;;;;;5.88;1.50;;;;;;;;;;5051290;28;20166;-60
2023/09/18 10:56:25;;;;;;;3.75;1.60;;;;;;;;;;5049726;28;20475;-60
2023/09/18 10:58:59;;;;;;;2.70;1.45;;;;;;;;;;5039708;28;20045;-59
2023/09/18 11:01:27;;;;;;;3.72;1.45;;;;;;;;;;5050284;28;20055;-58
2023/09/18 11:03:53;;;;;;;5.60;1.83;;;;;;;;;;5049749;28;20044;-59
2023/09/18 11:06:21;;;;;;;2.17;1.60;;;;;;;;;;5051937;28;20058;-57
2023/09/18 11:08:49;;;;;;;5.28;1.67;;;;;;;;;;5051031;28;20440;-59
2023/09/18 11:11:20;;;;;;;4.40;1.70;;;;;;;;;;5037444;28;20476;-58
2023/09/18 11:13:47;;;;;;;6.90;1.70;;;;;;;;;;5031511;28;20040;-59
2023/09/18 11:16:14;;;;;;;5.07;1.80;;;;;;;;;;5048356;28;20133;-58
2023/09/18 11:18:39;;;;;;;5.15;1.80;;;;;;;;;;5048390;28;20111;-59
2023/09/18 11:21:12;;;;;;;3.30;1.70;;;;;;;;;;5050287;28;20533;-58
2023/09/18 11:23:42;;;;;;;3.28;1.75;;;;;;;;;;5050780;28;20031;-61
2023/09/18 11:26:09;;;;;;;3.60;1.60;;;;;;;;;;5049019;28;20048;-60
2023/09/18 11:28:37;;;;;;;5.68;1.92;;;;;;;;;;5032663;28;20124;-60
2023/09/18 11:31:03;;;;;;;7.60;1.60;;;;;;;;;;5044414;28;20040;-59
2023/09/18 11:33:39;;;;;;;4.75;2.00;;;;;;;;;;5051289;28;20033;-59
2023/09/18 11:36:06;;;;;;;4.55;1.80;;;;;;;;;;5051256;28;20037;-59
2023/09/18 11:38:50;;;;;;;4.50;1.70;;;;;;;;;;5047980;28;20052;-59
2023/09/18 11:41:21;;;;;;;4.32;1.80;;;;;;;;;;5046108;28;20033;-56
2023/09/18 11:43:47;;;;;;;5.28;1.70;;;;;;;;;;5050583;28;20036;-59
2023/09/18 11:46:18;;;;;;;5.85;1.70;;;;;;;;;;5042943;28;20026;-60
2023/09/18 11:48:45;;;;;;;2.67;1.85;;;;;;;;;;5040445;28;20033;-59
2023/09/18 11:51:12;;;;;;;3.53;1.60;;;;;;;;;;5046285;28;20033;-59
2023/09/18 11:53:40;;;;;;;2.97;1.80;;;;;;;;;;5050718;28;20115;-59
2023/09/18 11:56:17;;;;;;;5.47;1.83;;;;;;;;;;5050455;28;20036;-59
2023/09/18 11:58:47;;;;;;;6.22;1.70;;;;;;;;;;5054650;28;20037;-60
2023/09/18 12:01:15;;;;;;;3.20;1.67;;;;;;;;;;5053716;28;20032;-59
2023/09/18 12:03:40;;;;;;;6.15;1.60;;;;;;;;;;5054638;28;20040;-60
2023/09/18 12:06:08;;;;;;;9.48;2.15;;;;;;;;;;5054696;28;20037;-60
2023/09/18 12:08:35;;;;;;;2.53;1.50;;;;;;;;;;5051021;28;20047;-60
2023/09/18 12:11:05;;;;;;;6.95;1.70;;;;;;;;;;5054152;28;20083;-60
2023/09/18 12:13:31;;;;;;;4.03;2.05;;;;;;;;;;5055436;28;20021;-60
2023/09/18 12:16:01;;;;;;;2.95;1.80;;;;;;;;;;5045767;28;20113;-56
2023/09/18 12:18:31;;;;;;;4.88;1.95;;;;;;;;;;5054872;28;20481;-54
2023/09/18 12:20:58;;;;;;;3.10;1.83;;;;;;;;;;5051964;28;20041;-58
2023/09/18 12:23:24;;;;;;;3.78;2.00;;;;;;;;;;5052787;28;20082;-56
2023/09/18 12:25:57;;;;;;;3.28;1.77;;;;;;;;;;5052694;28;20048;-57
2023/09/18 12:28:27;;;;;;;2.67;1.88;;;;;;;;;;5052542;28;20043;-58
2023/09/18 12:30:56;;;;;;;4.30;2.13;;;;;;;;;;5050208;28;20029;-56
2023/09/18 12:33:21;;;;;;;5.15;1.80;;;;;;;;;;5053359;28;20056;-58
2023/09/18 12:35:47;;;;;;;3.60;1.90;;;;;;;;;;5053625;28;20114;-59
2023/09/18 12:38:19;;;;;;;3.58;1.90;;;;;;;;;;5054424;28;20029;-55
2023/09/18 12:40:46;;;;;;;3.13;1.65;;;;;;;;;;5050013;28;20029;-60
2023/09/18 12:43:14;;;;;;;3.10;1.80;;;;;;;;;;5054211;28;20032;-59
2023/09/18 12:45:40;;;;;;;5.88;2.05;;;;;;;;;;5053493;28;20082;-59
2023/09/18 12:48:06;;;;;;;4.05;1.77;;;;;;;;;;5053139;28;20036;-58
2023/09/18 12:50:31;;;;;;;3.72;1.98;;;;;;;;;;5053161;28;20029;-60
2023/09/18 12:53:26;;;;;;;4.38;1.80;;;;;;;;;;5052147;28;20094;-60
2023/09/18 12:55:51;;;;;;;4.50;2.20;;;;;;;;;;5040159;28;20053;-58
2023/09/18 12:58:20;;;;;;;4.53;2.00;;;;;;;;;;5054187;28;20032;-59
2023/09/18 13:00:49;;;;;;;5.25;1.80;;;;;;;;;;5053023;28;20037;-60
2023/09/18 13:03:15;;;;;;;3.63;1.77;;;;;;;;;;5053280;28;20037;-58
2023/09/18 13:05:41;;;;;;;5.10;2.10;;;;;;;;;;5053426;28;20037;-60
2023/09/18 13:08:06;;;;;;;2.17;1.60;;;;;;;;;;5051991;28;20124;-58
2023/09/18 13:10:46;;;;;;;3.33;1.80;;;;;;;;;;5054244;28;20036;-59
2023/09/18 13:13:18;;;;;;;3.57;1.63;;;;;;;;;;5049099;28;20706;-58
2023/09/18 13:15:47;;;;;;;8.40;1.98;;;;;;;;;;5052660;28;20265;-58
2023/09/18 13:18:13;;;;;;;3.70;1.90;;;;;;;;;;5051704;28;20382;-56
2023/09/18 13:20:40;;;;;;;4.38;1.88;;;;;;;;;;5053571;28;20069;-58
2023/09/18 13:23:06;;;;;;;3.20;1.95;;;;;;;;;;5053216;28;20040;-57
2023/09/18 13:25:37;;;;;;;3.33;2.05;;;;;;;;;;5053525;28;20033;-58
2023/09/18 13:28:05;;;;;;;3.58;1.98;;;;;;;;;;5053010;28;20025;-58
2023/09/18 13:30:34;;;;;;;4.25;1.90;;;;;;;;;;5052773;28;20378;-59
2023/09/18 13:33:05;;;;;;;5.70;2.00;;;;;;;;;;5052799;28;20232;-58
2023/09/18 13:35:32;;;;;;;2.97;1.85;;;;;;;;;;5051493;28;20344;-59
2023/09/18 13:37:57;;;;;;;3.42;2.00;;;;;;;;;;5052798;28;20029;-58
2023/09/18 13:40:22;;;;;;;4.85;2.10;;;;;;;;;;5053105;28;20031;-55
2023/09/18 13:42:51;;;;;;;3.38;2.00;;;;;;;;;;5052521;28;20029;-57
2023/09/18 13:45:16;;;;;;;7.28;2.20;;;;;;;;;;5038720;28;20048;-57
2023/09/18 13:47:42;;;;;;;3.72;1.90;;;;;;;;;;5043064;28;20025;-58
2023/09/18 13:50:09;;;;;;;3.25;1.75;;;;;;;;;;5032748;28;20037;-57
2023/09/18 13:52:35;;;;;;;4.05;1.88;;;;;;;;;;5052365;28;20028;-60
2023/09/18 13:55:05;;;;;;;5.47;1.70;;;;;;;;;;5052268;28;20037;-60
2023/09/18 13:57:33;;;;;;;7.68;2.13;;;;;;;;;;5052885;28;20031;-59
2023/09/18 14:00:00;;;;;;;4.80;1.98;;;;;;;;;;5051651;28;20029;-58
2023/09/18 14:02:27;;;;;;;4.05;1.95;;;;;;;;;;5052980;28;20110;-56
2023/09/18 14:04:54;;;;;;;4.00;2.00;;;;;;;;;;5051154;28;20094;-58
2023/09/18 14:07:20;;;;;;;2.50;1.98;;;;;;;;;;5052460;28;20119;-59
2023/09/18 14:09:46;;;;;;;2.05;1.65;;;;;;;;;;5051918;28;20112;-59
2023/09/18 14:12:11;;;;;;;5.93;2.20;;;;;;;;;;5043567;28;20025;-60
2023/09/18 14:14:38;;;;;;;4.55;2.10;;;;;;;;;;5045017;28;20086;-58
2023/09/18 14:17:03;;;;;;;7.07;2.20;;;;;;;;;;5045550;28;20669;-58
2023/09/18 14:19:29;;;;;;;5.55;2.13;;;;;;;;;;5051329;28;20124;-58
2023/09/18 14:21:54;;;;;;;3.38;2.08;;;;;;;;;;5048460;28;20489;-57
2023/09/18 14:24:24;;;;;;;2.80;1.85;;;;;;;;;;5051576;28;20055;-58
2023/09/18 14:26:50;;;;;;;4.22;1.75;;;;;;;;;;5051101;28;20405;-56
2023/09/18 14:29:15;;;;;;;3.95;2.05;;;;;;;;;;5051495;28;20079;-56
2023/09/18 14:31:42;;;;;;;3.85;2.00;;;;;;;;;;5051811;28;20469;-60
2023/09/18 14:34:08;;;;;;;4.35;2.20;;;;;;;;;;5051257;28;20037;-56
2023/09/18 14:36:34;;;;;;;7.72;2.28;;;;;;;;;;5052167;28;20029;-58
2023/09/18 14:39:03;;;;;;;5.15;2.00;;;;;;;;;;5051280;28;20037;-56
2023/09/18 14:41:28;;;;;;;4.85;2.00;;;;;;;;;;5052045;28;20170;-59
2023/09/18 14:43:56;;;;;;;3.53;1.80;;;;;;;;;;5038922;28;20116;-54